createdAt,value
2023-02-19T00:03:41.122Z,9.60
2023-02-19T00:08:44.897Z,6.30
2023-02-19T00:13:50.363Z,8.80
2023-02-19T00:18:54.979Z,5.30
2023-02-19T00:24:01.384Z,8.10
2023-02-19T00:29:04.890Z,12.70
2023-02-19T00:34:08.215Z,28.60
2023-02-19T00:39:15.865Z,15.90
2023-02-19T00:44:19.641Z,10.40
2023-02-19T00:49:23.601Z,10.10
2023-02-19T00:54:26.770Z,5.00
2023-02-19T00:59:29.775Z,6.40
2023-02-19T01:04:32.911Z,6.80
2023-02-19T01:14:39.085Z,8.00
2023-02-19T01:24:45.308Z,13.50
2023-02-19T01:34:51.300Z,6.90
2023-02-19T01:39:54.310Z,9.70
2023-02-19T01:50:23.454Z,7.00
2023-02-19T01:55:26.665Z,9.80
2023-02-19T02:00:30.964Z,6.80
2023-02-19T02:05:46.493Z,6.50
2023-02-19T02:10:51.375Z,5.70
2023-02-19T02:16:23.163Z,9.00
2023-02-19T02:21:46.092Z,6.10
2023-02-19T02:27:01.077Z,5.30
2023-02-19T02:32:10.958Z,6.60
2023-02-19T02:37:16.048Z,9.10
2023-02-19T02:42:28.218Z,5.70
2023-02-19T02:47:44.942Z,7.20
2023-02-19T02:53:11.490Z,5.70
2023-02-19T02:58:16.752Z,11.20
2023-02-19T03:03:24.473Z,7.40
2023-02-19T03:08:31.790Z,8.80
2023-02-19T03:13:57.394Z,8.10
2023-02-19T03:19:20.167Z,7.50
2023-02-19T03:24:47.480Z,6.30
2023-02-19T03:29:54.538Z,4.40
2023-02-19T03:35:04.196Z,7.50
2023-02-19T03:40:08.671Z,5.90
2023-02-19T03:45:19.007Z,9.70
2023-02-19T03:50:44.637Z,6.80
2023-02-19T03:56:06.789Z,4.40
2023-02-19T04:01:20.034Z,8.10
2023-02-19T04:06:29.488Z,5.80
2023-02-19T04:11:33.733Z,5.00
2023-02-19T04:16:42.890Z,9.20
2023-02-19T04:21:47.424Z,7.60
2023-02-19T04:26:50.924Z,8.30
2023-02-19T04:31:53.965Z,3.30
2023-02-19T04:36:57.233Z,8.90
2023-02-19T04:42:00.441Z,8.50
2023-02-19T04:52:06.648Z,4.20
2023-02-19T04:57:09.856Z,8.50
2023-02-19T05:02:13.064Z,9.70
2023-02-19T05:12:19.790Z,4.60
2023-02-19T05:17:23.096Z,12.10
2023-02-19T05:22:26.324Z,4.00
2023-02-19T05:27:31.972Z,5.70
2023-02-19T05:32:35.909Z,7.10
2023-02-19T05:37:39.035Z,5.00
2023-02-19T05:42:42.003Z,7.20
2023-02-19T05:47:45.005Z,5.60
2023-02-19T05:52:48.109Z,6.50
2023-02-19T05:57:51.222Z,8.10
2023-02-19T06:02:54.878Z,6.60
2023-02-19T06:07:58.861Z,3.60
2023-02-19T06:13:02.071Z,4.70
2023-02-19T06:18:05.379Z,7.20
2023-02-19T06:23:08.381Z,10.60
2023-02-19T06:28:11.536Z,9.40
2023-02-19T06:33:14.703Z,5.60
2023-02-19T06:43:20.712Z,6.70
2023-02-19T06:48:23.953Z,6.80
2023-02-19T06:53:27.751Z,7.20
2023-02-19T06:58:32.580Z,5.80
2023-02-19T07:03:35.688Z,7.80
2023-02-19T07:13:42.101Z,7.10
2023-02-19T07:18:46.214Z,7.90
2023-02-19T07:23:50.297Z,6.00
2023-02-19T07:28:54.204Z,4.70
2023-02-19T07:33:58.619Z,7.30
2023-02-19T07:39:02.236Z,7.50
2023-02-19T07:44:06.061Z,5.90
2023-02-19T07:49:09.376Z,5.00
2023-02-19T07:54:13.806Z,5.30
2023-02-19T07:59:19.895Z,5.80
2023-02-19T08:04:22.993Z,6.50
2023-02-19T08:14:30.032Z,9.00
2023-02-19T08:19:33.333Z,9.30
2023-02-19T08:24:39.711Z,14.30
2023-02-19T08:29:42.918Z,8.50
2023-02-19T08:39:49.129Z,11.50
2023-02-19T08:44:52.235Z,7.60
2023-02-19T08:49:55.361Z,5.70
2023-02-19T08:54:58.661Z,4.80
2023-02-19T09:00:01.953Z,10.60
2023-02-19T09:05:08.548Z,8.30
2023-02-19T09:10:14.367Z,12.60
2023-02-19T09:15:19.718Z,8.70
2023-02-19T09:20:23.219Z,5.10
2023-02-19T09:25:27.727Z,8.80
2023-02-19T09:30:30.872Z,4.70
2023-02-19T09:40:38.583Z,7.00
2023-02-19T09:45:42.098Z,7.80
2023-02-19T09:50:48.897Z,5.90
2023-02-19T09:55:53.527Z,8.80
2023-02-19T10:00:59.062Z,6.80
2023-02-19T10:06:11.147Z,4.40
2023-02-19T10:11:16.152Z,7.90
2023-02-19T10:16:25.196Z,6.60
2023-02-19T10:21:29.020Z,6.50
2023-02-19T10:26:35.599Z,6.80
2023-02-19T10:31:39.682Z,7.30
2023-02-19T10:36:45.530Z,6.10
2023-02-19T10:41:51.228Z,6.00
2023-02-19T10:46:57.727Z,6.60
2023-02-19T10:52:18.010Z,5.10
2023-02-19T10:57:30.694Z,7.60
2023-02-19T11:02:34.207Z,8.10
2023-02-19T11:07:39.162Z,4.00
2023-02-19T11:12:48.099Z,4.20
2023-02-19T11:18:08.508Z,6.30
2023-02-19T11:23:18.951Z,4.80
2023-02-19T11:28:32.852Z,7.00
2023-02-19T11:33:35.952Z,3.40
2023-02-19T11:43:51.277Z,5.70
2023-02-19T11:49:30.540Z,6.80
2023-02-19T11:54:54.817Z,3.40
2023-02-19T12:00:30.637Z,9.90
2023-02-19T12:05:56.952Z,6.30
2023-02-19T12:11:05.186Z,5.00
2023-02-19T12:16:39.825Z,4.90
2023-02-19T12:22:12.633Z,4.00
2023-02-19T12:27:29.202Z,5.20
2023-02-19T12:32:50.069Z,12.10
2023-02-19T12:38:12.116Z,41.30
2023-02-19T12:43:24.863Z,2.90
2023-02-19T12:48:40.137Z,2.30
2023-02-19T12:53:53.183Z,4.10
2023-02-19T12:59:04.039Z,6.00
2023-02-19T13:04:37.468Z,2.10
2023-02-19T13:09:56.267Z,3.50
2023-02-19T13:15:05.409Z,2.40
2023-02-19T13:20:23.758Z,5.50
2023-02-19T13:25:50.323Z,2.60
2023-02-19T13:31:00.674Z,3.60
2023-02-19T13:36:16.910Z,5.10
2023-02-19T13:41:30.154Z,3.80
2023-02-19T13:46:38.322Z,2.90
2023-02-19T13:51:51.638Z,3.70
2023-02-19T13:57:26.130Z,223.30
2023-02-19T14:02:33.417Z,50.00
2023-02-19T14:07:49.601Z,8.00
2023-02-19T14:12:53.304Z,63.30
2023-02-19T14:17:57.442Z,12.90
2023-02-19T14:23:09.850Z,43.70
2023-02-19T14:28:18.910Z,8.00
2023-02-19T14:33:28.455Z,15.80
2023-02-19T14:39:01.151Z,5.60
2023-02-19T14:44:13.365Z,14.90
2023-02-19T14:49:26.407Z,4.80
2023-02-19T14:54:41.298Z,6.60
2023-02-19T15:00:00.620Z,6.20
2023-02-19T15:05:26.319Z,4.40
2023-02-19T15:10:32.658Z,5.50
2023-02-19T15:15:41.212Z,5.30
2023-02-19T15:20:45.057Z,25.10
2023-02-19T15:25:52.753Z,124.80
2023-02-19T15:30:59.517Z,40.10
2023-02-19T15:36:07.078Z,91.90
2023-02-19T15:41:22.099Z,32.20
2023-02-19T15:46:26.970Z,88.00
2023-02-19T15:51:43.531Z,75.60
2023-02-19T15:56:50.984Z,26.70
2023-02-19T16:01:54.859Z,14.20
2023-02-19T16:07:03.392Z,8.60
2023-02-19T16:12:24.381Z,13.90
2023-02-19T16:17:28.962Z,19.20
2023-02-19T16:22:41.088Z,11.60
2023-02-19T16:27:44.899Z,62.90
2023-02-19T16:32:48.103Z,48.90
2023-02-19T16:43:04.558Z,42.50
2023-02-19T16:48:09.357Z,20.40
2023-02-19T16:53:20.505Z,14.10
2023-02-19T16:58:25.749Z,6.90
2023-02-19T17:03:29.159Z,8.30
2023-02-19T17:08:39.039Z,8.30
2023-02-19T17:13:43.638Z,19.30
2023-02-19T17:18:47.281Z,41.40
2023-02-19T17:23:50.696Z,99.90
2023-02-19T17:29:02.517Z,148.50
2023-02-19T17:34:06.025Z,19.30
2023-02-19T17:39:15.669Z,7.60
2023-02-19T17:44:18.915Z,6.10
2023-02-19T17:54:27.663Z,18.80
2023-02-19T17:59:32.305Z,12.90
2023-02-19T18:04:37.020Z,5.20
2023-02-19T18:09:41.794Z,4.50
2023-02-19T18:14:48.380Z,5.50
2023-02-19T18:19:53.436Z,11.90
2023-02-19T18:24:56.852Z,7.50
2023-02-19T18:30:00.518Z,9.90
2023-02-19T18:35:06.089Z,3.30
2023-02-19T18:40:13.947Z,6.10
2023-02-19T18:45:23.200Z,428.70
2023-02-19T18:50:28.640Z,1999.90
2023-02-19T18:55:35.960Z,1841.80
2023-02-19T19:00:41.827Z,1302.60
2023-02-19T19:05:46.392Z,500.00
2023-02-19T19:10:50.817Z,328.30
2023-02-19T19:15:54.405Z,294.40
2023-02-19T19:21:03.779Z,194.10
2023-02-19T19:26:07.607Z,378.10
2023-02-19T19:31:14.403Z,469.30
2023-02-19T19:36:23.317Z,350.50
2023-02-19T19:41:26.966Z,78.60
2023-02-19T19:46:31.787Z,526.50
2023-02-19T19:51:36.140Z,407.10
2023-02-19T19:56:45.053Z,323.70
2023-02-19T20:01:53.182Z,327.50
2023-02-19T20:06:59.747Z,650.90
2023-02-19T20:12:03.916Z,288.40
2023-02-19T20:17:09.786Z,195.60
2023-02-19T20:22:12.892Z,111.90
2023-02-19T20:27:16.120Z,356.70
2023-02-19T20:32:19.349Z,196.40
2023-02-19T20:37:24.357Z,210.50
2023-02-19T20:42:29.519Z,235.80
2023-02-19T20:47:34.667Z,262.20
2023-02-19T20:52:37.978Z,197.40
2023-02-19T20:57:41.494Z,111.10
2023-02-19T21:07:49.861Z,78.40
2023-02-19T21:12:54.561Z,33.70
2023-02-19T21:17:57.908Z,18.80
2023-02-19T21:23:02.502Z,9.70
2023-02-19T21:28:09.445Z,9.30
2023-02-19T21:33:13.573Z,12.40
2023-02-19T21:38:16.989Z,71.50
2023-02-19T21:43:20.431Z,21.30
2023-02-19T21:48:24.331Z,18.50
2023-02-19T21:53:28.249Z,14.80
2023-02-19T21:58:31.456Z,23.30
2023-02-19T22:08:37.667Z,10.40
2023-02-19T22:13:40.874Z,8.90
2023-02-19T22:18:51.883Z,10.30
2023-02-19T22:23:55.585Z,10.40
2023-02-19T22:28:59.865Z,5.70
2023-02-19T22:34:03.131Z,9.20
2023-02-19T22:39:08.990Z,8.10
2023-02-19T22:44:12.705Z,8.70
2023-02-19T22:49:16.233Z,8.30
2023-02-19T22:54:25.171Z,7.10
2023-02-19T22:59:28.176Z,4.30
2023-02-19T23:04:31.582Z,7.20
2023-02-19T23:09:34.698Z,6.40
2023-02-19T23:14:38.115Z,8.90
2023-02-19T23:19:41.222Z,8.10
2023-02-19T23:24:44.634Z,7.90
2023-02-19T23:34:51.565Z,4.50
2023-02-19T23:39:54.616Z,3.00
2023-02-19T23:44:57.778Z,4.80
2023-02-19T23:50:01.286Z,3.40
2023-02-19T23:55:05.926Z,2.30
